sensor_id;sensor_type;location;lat;lon;timestamp;P1;durP1;ratioP1;P2;durP2;ratioP2
4698;SDS011;33708;49.466;11.176;2023-04-25T00:01:10;11.43;;;4.60;;
4698;SDS011;33708;49.466;11.176;2023-04-25T00:03:38;12.37;;;4.80;;
4698;SDS011;33708;49.466;11.176;2023-04-25T00:06:04;13.53;;;5.40;;
4698;SDS011;33708;49.466;11.176;2023-04-25T00:08:30;11.57;;;5.27;;
4698;SDS011;33708;49.466;11.176;2023-04-25T00:10:56;11.40;;;5.27;;
4698;SDS011;33708;49.466;11.176;2023-04-25T00:13:22;12.50;;;5.37;;
4698;SDS011;33708;49.466;11.176;2023-04-25T00:15:48;11.03;;;4.37;;
4698;SDS011;33708;49.466;11.176;2023-04-25T00:18:14;11.60;;;5.30;;
4698;SDS011;33708;49.466;11.176;2023-04-25T00:20:40;12.03;;;5.23;;
4698;SDS011;33708;49.466;11.176;2023-04-25T00:23:09;11.17;;;4.37;;
4698;SDS011;33708;49.466;11.176;2023-04-25T00:25:35;9.53;;;3.70;;
4698;SDS011;33708;49.466;11.176;2023-04-25T00:28:00;10.60;;;4.50;;
4698;SDS011;33708;49.466;11.176;2023-04-25T00:30:26;11.60;;;4.67;;
4698;SDS011;33708;49.466;11.176;2023-04-25T00:32:52;11.70;;;5.00;;
4698;SDS011;33708;49.466;11.176;2023-04-25T00:35:18;11.43;;;4.27;;
4698;SDS011;33708;49.466;11.176;2023-04-25T00:37:43;10.97;;;4.47;;
4698;SDS011;33708;49.466;11.176;2023-04-25T00:40:09;12.50;;;4.30;;
4698;SDS011;33708;49.466;11.176;2023-04-25T00:42:35;10.90;;;4.60;;
4698;SDS011;33708;49.466;11.176;2023-04-25T00:45:02;10.70;;;4.33;;
4698;SDS011;33708;49.466;11.176;2023-04-25T00:47:30;10.60;;;4.30;;
4698;SDS011;33708;49.466;11.176;2023-04-25T00:49:57;14.20;;;4.97;;
4698;SDS011;33708;49.466;11.176;2023-04-25T00:52:23;11.77;;;5.27;;
4698;SDS011;33708;49.466;11.176;2023-04-25T00:54:49;11.30;;;4.47;;
4698;SDS011;33708;49.466;11.176;2023-04-25T00:57:14;10.37;;;4.13;;
4698;SDS011;33708;49.466;11.176;2023-04-25T00:59:40;13.10;;;5.10;;
4698;SDS011;33708;49.466;11.176;2023-04-25T01:02:10;12.47;;;4.57;;
4698;SDS011;33708;49.466;11.176;2023-04-25T01:04:35;10.10;;;4.10;;
4698;SDS011;33708;49.466;11.176;2023-04-25T01:07:01;11.50;;;4.40;;
4698;SDS011;33708;49.466;11.176;2023-04-25T01:09:27;12.90;;;4.80;;
4698;SDS011;33708;49.466;11.176;2023-04-25T01:11:56;13.53;;;4.33;;
4698;SDS011;33708;49.466;11.176;2023-04-25T01:14:22;16.80;;;4.10;;
4698;SDS011;33708;49.466;11.176;2023-04-25T01:16:48;10.00;;;4.13;;
4698;SDS011;33708;49.466;11.176;2023-04-25T01:19:14;12.43;;;4.50;;
4698;SDS011;33708;49.466;11.176;2023-04-25T01:21:41;10.67;;;4.30;;
4698;SDS011;33708;49.466;11.176;2023-04-25T01:24:07;11.10;;;4.00;;
4698;SDS011;33708;49.466;11.176;2023-04-25T01:26:33;11.33;;;4.20;;
4698;SDS011;33708;49.466;11.176;2023-04-25T01:29:00;12.73;;;4.40;;
4698;SDS011;33708;49.466;11.176;2023-04-25T01:31:26;11.23;;;4.27;;
4698;SDS011;33708;49.466;11.176;2023-04-25T01:33:53;10.23;;;4.10;;
4698;SDS011;33708;49.466;11.176;2023-04-25T01:36:18;12.10;;;4.10;;
4698;SDS011;33708;49.466;11.176;2023-04-25T01:38:45;11.50;;;3.77;;
4698;SDS011;33708;49.466;11.176;2023-04-25T01:41:12;12.80;;;3.87;;
4698;SDS011;33708;49.466;11.176;2023-04-25T01:43:39;10.60;;;4.07;;
4698;SDS011;33708;49.466;11.176;2023-04-25T01:46:05;11.87;;;4.23;;
4698;SDS011;33708;49.466;11.176;2023-04-25T01:48:31;11.33;;;4.17;;
4698;SDS011;33708;49.466;11.176;2023-04-25T01:50:56;10.80;;;4.07;;
4698;SDS011;33708;49.466;11.176;2023-04-25T01:53:22;9.90;;;3.97;;
4698;SDS011;33708;49.466;11.176;2023-04-25T01:55:48;10.97;;;4.00;;
4698;SDS011;33708;49.466;11.176;2023-04-25T01:58:14;10.20;;;4.30;;
4698;SDS011;33708;49.466;11.176;2023-04-25T02:00:40;12.10;;;4.27;;
4698;SDS011;33708;49.466;11.176;2023-04-25T02:03:06;11.87;;;5.00;;
4698;SDS011;33708;49.466;11.176;2023-04-25T02:05:36;11.43;;;4.50;;
4698;SDS011;33708;49.466;11.176;2023-04-25T02:08:03;17.07;;;4.33;;
4698;SDS011;33708;49.466;11.176;2023-04-25T02:10:33;13.53;;;5.00;;
4698;SDS011;33708;49.466;11.176;2023-04-25T02:12:59;11.83;;;4.17;;
4698;SDS011;33708;49.466;11.176;2023-04-25T02:15:25;11.37;;;4.00;;
4698;SDS011;33708;49.466;11.176;2023-04-25T02:17:50;11.87;;;4.13;;
4698;SDS011;33708;49.466;11.176;2023-04-25T02:20:18;15.00;;;5.37;;
4698;SDS011;33708;49.466;11.176;2023-04-25T02:22:45;10.10;;;3.90;;
4698;SDS011;33708;49.466;11.176;2023-04-25T02:25:11;10.73;;;4.00;;
4698;SDS011;33708;49.466;11.176;2023-04-25T02:27:37;11.80;;;4.53;;
4698;SDS011;33708;49.466;11.176;2023-04-25T02:30:03;10.47;;;3.70;;
4698;SDS011;33708;49.466;11.176;2023-04-25T02:32:29;10.53;;;3.90;;
4698;SDS011;33708;49.466;11.176;2023-04-25T02:34:55;10.00;;;4.13;;
4698;SDS011;33708;49.466;11.176;2023-04-25T02:37:23;11.20;;;3.77;;
4698;SDS011;33708;49.466;11.176;2023-04-25T02:39:49;11.07;;;4.20;;
4698;SDS011;33708;49.466;11.176;2023-04-25T02:42:14;11.70;;;4.30;;
4698;SDS011;33708;49.466;11.176;2023-04-25T02:44:40;12.17;;;4.40;;
4698;SDS011;33708;49.466;11.176;2023-04-25T02:47:06;10.67;;;4.30;;
4698;SDS011;33708;49.466;11.176;2023-04-25T02:49:32;10.47;;;3.23;;
4698;SDS011;33708;49.466;11.176;2023-04-25T02:51:57;12.07;;;4.60;;
4698;SDS011;33708;49.466;11.176;2023-04-25T02:54:23;11.40;;;4.70;;
4698;SDS011;33708;49.466;11.176;2023-04-25T02:56:48;11.67;;;4.80;;
4698;SDS011;33708;49.466;11.176;2023-04-25T02:59:14;13.03;;;5.00;;
4698;SDS011;33708;49.466;11.176;2023-04-25T03:01:40;15.90;;;5.50;;
4698;SDS011;33708;49.466;11.176;2023-04-25T03:04:06;11.50;;;5.20;;
4698;SDS011;33708;49.466;11.176;2023-04-25T03:06:31;10.77;;;4.60;;
4698;SDS011;33708;49.466;11.176;2023-04-25T03:08:57;12.17;;;5.27;;
4698;SDS011;33708;49.466;11.176;2023-04-25T03:11:24;11.40;;;5.33;;
4698;SDS011;33708;49.466;11.176;2023-04-25T03:13:50;12.70;;;5.27;;
4698;SDS011;33708;49.466;11.176;2023-04-25T03:16:16;13.80;;;5.70;;
4698;SDS011;33708;49.466;11.176;2023-04-25T03:18:41;13.40;;;5.70;;
4698;SDS011;33708;49.466;11.176;2023-04-25T03:21:07;13.10;;;5.10;;
4698;SDS011;33708;49.466;11.176;2023-04-25T03:23:32;14.07;;;6.30;;
4698;SDS011;33708;49.466;11.176;2023-04-25T03:25:58;13.37;;;6.60;;
4698;SDS011;33708;49.466;11.176;2023-04-25T03:28:24;12.17;;;5.30;;
4698;SDS011;33708;49.466;11.176;2023-04-25T03:30:50;11.87;;;5.53;;
4698;SDS011;33708;49.466;11.176;2023-04-25T03:33:16;13.97;;;6.20;;
4698;SDS011;33708;49.466;11.176;2023-04-25T03:35:41;12.70;;;6.13;;
4698;SDS011;33708;49.466;11.176;2023-04-25T03:38:07;15.97;;;6.27;;
4698;SDS011;33708;49.466;11.176;2023-04-25T03:40:33;13.37;;;6.60;;
4698;SDS011;33708;49.466;11.176;2023-04-25T03:42:59;12.87;;;6.30;;
4698;SDS011;33708;49.466;11.176;2023-04-25T03:45:24;13.43;;;6.00;;
4698;SDS011;33708;49.466;11.176;2023-04-25T03:47:50;17.90;;;6.50;;
4698;SDS011;33708;49.466;11.176;2023-04-25T03:50:16;14.90;;;6.10;;
4698;SDS011;33708;49.466;11.176;2023-04-25T03:52:42;12.90;;;5.90;;
4698;SDS011;33708;49.466;11.176;2023-04-25T03:55:08;13.70;;;6.23;;
4698;SDS011;33708;49.466;11.176;2023-04-25T03:57:34;13.00;;;6.60;;
4698;SDS011;33708;49.466;11.176;2023-04-25T04:00:00;13.23;;;6.43;;
4698;SDS011;33708;49.466;11.176;2023-04-25T04:02:26;15.83;;;6.40;;
4698;SDS011;33708;49.466;11.176;2023-04-25T04:04:51;13.60;;;6.70;;
4698;SDS011;33708;49.466;11.176;2023-04-25T04:07:17;15.60;;;6.10;;
4698;SDS011;33708;49.466;11.176;2023-04-25T04:09:42;16.30;;;6.70;;
4698;SDS011;33708;49.466;11.176;2023-04-25T04:12:08;20.00;;;6.90;;
4698;SDS011;33708;49.466;11.176;2023-04-25T04:14:34;12.90;;;6.40;;
4698;SDS011;33708;49.466;11.176;2023-04-25T04:16:59;15.67;;;7.20;;
4698;SDS011;33708;49.466;11.176;2023-04-25T04:19:25;14.30;;;6.70;;
4698;SDS011;33708;49.466;11.176;2023-04-25T04:21:51;15.07;;;6.80;;
4698;SDS011;33708;49.466;11.176;2023-04-25T04:24:16;15.50;;;6.03;;
4698;SDS011;33708;49.466;11.176;2023-04-25T04:26:42;13.40;;;6.30;;
4698;SDS011;33708;49.466;11.176;2023-04-25T04:29:10;14.00;;;6.03;;
4698;SDS011;33708;49.466;11.176;2023-04-25T04:31:36;13.30;;;6.03;;
4698;SDS011;33708;49.466;11.176;2023-04-25T04:34:02;12.57;;;6.13;;
4698;SDS011;33708;49.466;11.176;2023-04-25T04:36:28;12.73;;;5.80;;
4698;SDS011;33708;49.466;11.176;2023-04-25T04:38:54;14.27;;;6.27;;
4698;SDS011;33708;49.466;11.176;2023-04-25T04:41:21;14.10;;;6.73;;
4698;SDS011;33708;49.466;11.176;2023-04-25T04:43:47;13.87;;;6.83;;
4698;SDS011;33708;49.466;11.176;2023-04-25T04:46:13;16.23;;;7.10;;
4698;SDS011;33708;49.466;11.176;2023-04-25T04:48:39;16.73;;;8.30;;
4698;SDS011;33708;49.466;11.176;2023-04-25T04:51:05;13.33;;;6.87;;
4698;SDS011;33708;49.466;11.176;2023-04-25T04:53:31;16.20;;;7.40;;
4698;SDS011;33708;49.466;11.176;2023-04-25T04:55:57;14.20;;;7.50;;
4698;SDS011;33708;49.466;11.176;2023-04-25T04:58:23;16.53;;;7.80;;
4698;SDS011;33708;49.466;11.176;2023-04-25T05:00:48;15.90;;;7.10;;
4698;SDS011;33708;49.466;11.176;2023-04-25T05:03:14;15.20;;;7.40;;
4698;SDS011;33708;49.466;11.176;2023-04-25T05:05:41;15.07;;;7.60;;
4698;SDS011;33708;49.466;11.176;2023-04-25T05:08:06;14.93;;;7.97;;
4698;SDS011;33708;49.466;11.176;2023-04-25T05:10:32;17.80;;;8.00;;
4698;SDS011;33708;49.466;11.176;2023-04-25T05:12:58;18.10;;;7.47;;
4698;SDS011;33708;49.466;11.176;2023-04-25T05:15:23;14.20;;;6.80;;
4698;SDS011;33708;49.466;11.176;2023-04-25T05:17:49;14.47;;;7.87;;
4698;SDS011;33708;49.466;11.176;2023-04-25T05:20:15;16.50;;;8.20;;
4698;SDS011;33708;49.466;11.176;2023-04-25T05:22:40;14.10;;;7.80;;
4698;SDS011;33708;49.466;11.176;2023-04-25T05:25:07;14.30;;;6.90;;
4698;SDS011;33708;49.466;11.176;2023-04-25T05:27:33;18.07;;;7.67;;
4698;SDS011;33708;49.466;11.176;2023-04-25T05:29:59;19.30;;;8.17;;
4698;SDS011;33708;49.466;11.176;2023-04-25T05:32:25;15.07;;;7.00;;
4698;SDS011;33708;49.466;11.176;2023-04-25T05:34:51;15.30;;;7.73;;
4698;SDS011;33708;49.466;11.176;2023-04-25T05:37:17;15.30;;;7.63;;
4698;SDS011;33708;49.466;11.176;2023-04-25T05:39:42;13.03;;;7.03;;
4698;SDS011;33708;49.466;11.176;2023-04-25T05:42:08;19.73;;;7.70;;
4698;SDS011;33708;49.466;11.176;2023-04-25T05:44:33;14.97;;;6.80;;
4698;SDS011;33708;49.466;11.176;2023-04-25T05:46:59;12.30;;;6.07;;
4698;SDS011;33708;49.466;11.176;2023-04-25T05:49:25;12.97;;;6.57;;
4698;SDS011;33708;49.466;11.176;2023-04-25T05:51:50;13.97;;;6.43;;
4698;SDS011;33708;49.466;11.176;2023-04-25T05:54:16;13.73;;;6.27;;
4698;SDS011;33708;49.466;11.176;2023-04-25T05:56:42;13.83;;;6.40;;
4698;SDS011;33708;49.466;11.176;2023-04-25T05:59:08;13.57;;;6.83;;
4698;SDS011;33708;49.466;11.176;2023-04-25T06:01:33;14.50;;;6.83;;
4698;SDS011;33708;49.466;11.176;2023-04-25T06:03:59;13.30;;;6.20;;
4698;SDS011;33708;49.466;11.176;2023-04-25T06:06:24;14.33;;;7.47;;
4698;SDS011;33708;49.466;11.176;2023-04-25T06:08:51;13.80;;;6.97;;
4698;SDS011;33708;49.466;11.176;2023-04-25T06:11:17;13.33;;;7.03;;
4698;SDS011;33708;49.466;11.176;2023-04-25T06:13:42;13.07;;;6.87;;
4698;SDS011;33708;49.466;11.176;2023-04-25T06:16:08;16.00;;;7.80;;
4698;SDS011;33708;49.466;11.176;2023-04-25T06:18:34;13.70;;;7.30;;
4698;SDS011;33708;49.466;11.176;2023-04-25T06:20:59;13.00;;;6.93;;
4698;SDS011;33708;49.466;11.176;2023-04-25T06:23:25;13.40;;;6.90;;
4698;SDS011;33708;49.466;11.176;2023-04-25T06:25:51;13.83;;;6.93;;
4698;SDS011;33708;49.466;11.176;2023-04-25T06:28:16;14.30;;;7.43;;
4698;SDS011;33708;49.466;11.176;2023-04-25T06:30:42;14.00;;;6.83;;
4698;SDS011;33708;49.466;11.176;2023-04-25T06:33:07;15.47;;;8.37;;
4698;SDS011;33708;49.466;11.176;2023-04-25T06:35:33;14.03;;;7.03;;
4698;SDS011;33708;49.466;11.176;2023-04-25T06:37:59;16.47;;;7.80;;
4698;SDS011;33708;49.466;11.176;2023-04-25T06:40:25;13.17;;;7.20;;
4698;SDS011;33708;49.466;11.176;2023-04-25T06:42:51;14.90;;;7.23;;
4698;SDS011;33708;49.466;11.176;2023-04-25T06:45:16;13.53;;;7.37;;
4698;SDS011;33708;49.466;11.176;2023-04-25T06:47:44;20.23;;;8.37;;
4698;SDS011;33708;49.466;11.176;2023-04-25T06:50:10;17.80;;;7.47;;
4698;SDS011;33708;49.466;11.176;2023-04-25T06:52:35;14.23;;;7.03;;
4698;SDS011;33708;49.466;11.176;2023-04-25T06:55:01;15.20;;;7.53;;
4698;SDS011;33708;49.466;11.176;2023-04-25T06:57:27;15.30;;;6.97;;
4698;SDS011;33708;49.466;11.176;2023-04-25T06:59:53;17.80;;;8.43;;
4698;SDS011;33708;49.466;11.176;2023-04-25T07:02:18;15.43;;;7.70;;
4698;SDS011;33708;49.466;11.176;2023-04-25T07:04:46;16.80;;;7.80;;
4698;SDS011;33708;49.466;11.176;2023-04-25T07:07:11;16.27;;;7.00;;
4698;SDS011;33708;49.466;11.176;2023-04-25T07:09:37;13.63;;;7.10;;
4698;SDS011;33708;49.466;11.176;2023-04-25T07:12:02;15.07;;;6.90;;
4698;SDS011;33708;49.466;11.176;2023-04-25T07:14:28;13.47;;;6.80;;
4698;SDS011;33708;49.466;11.176;2023-04-25T07:16:54;14.87;;;6.83;;
4698;SDS011;33708;49.466;11.176;2023-04-25T07:19:21;13.67;;;6.73;;
4698;SDS011;33708;49.466;11.176;2023-04-25T07:21:51;14.77;;;6.80;;
4698;SDS011;33708;49.466;11.176;2023-04-25T07:24:17;15.00;;;6.73;;
4698;SDS011;33708;49.466;11.176;2023-04-25T07:26:43;16.60;;;6.10;;
4698;SDS011;33708;49.466;11.176;2023-04-25T07:29:08;14.30;;;7.03;;
4698;SDS011;33708;49.466;11.176;2023-04-25T07:31:34;14.30;;;6.67;;
4698;SDS011;33708;49.466;11.176;2023-04-25T07:34:00;11.20;;;5.60;;
4698;SDS011;33708;49.466;11.176;2023-04-25T07:36:26;10.67;;;4.70;;
4698;SDS011;33708;49.466;11.176;2023-04-25T07:38:52;10.97;;;3.77;;
4698;SDS011;33708;49.466;11.176;2023-04-25T07:41:17;10.57;;;3.30;;
4698;SDS011;33708;49.466;11.176;2023-04-25T07:43:43;9.87;;;2.90;;
4698;SDS011;33708;49.466;11.176;2023-04-25T07:46:08;9.33;;;2.70;;
4698;SDS011;33708;49.466;11.176;2023-04-25T07:48:34;10.60;;;2.90;;
4698;SDS011;33708;49.466;11.176;2023-04-25T07:51:00;12.80;;;3.63;;
4698;SDS011;33708;49.466;11.176;2023-04-25T07:53:25;10.30;;;3.20;;
4698;SDS011;33708;49.466;11.176;2023-04-25T07:55:51;10.97;;;3.37;;
4698;SDS011;33708;49.466;11.176;2023-04-25T07:58:16;11.40;;;3.13;;
4698;SDS011;33708;49.466;11.176;2023-04-25T08:00:46;9.10;;;2.63;;
4698;SDS011;33708;49.466;11.176;2023-04-25T08:03:12;10.00;;;2.80;;
4698;SDS011;33708;49.466;11.176;2023-04-25T08:05:37;13.80;;;3.17;;
4698;SDS011;33708;49.466;11.176;2023-04-25T08:08:03;9.20;;;3.23;;
4698;SDS011;33708;49.466;11.176;2023-04-25T08:10:31;9.37;;;3.33;;
4698;SDS011;33708;49.466;11.176;2023-04-25T08:12:57;13.07;;;2.97;;
4698;SDS011;33708;49.466;11.176;2023-04-25T08:15:23;10.23;;;3.70;;
4698;SDS011;33708;49.466;11.176;2023-04-25T08:17:48;11.40;;;3.20;;
4698;SDS011;33708;49.466;11.176;2023-04-25T08:20:14;16.20;;;3.87;;
4698;SDS011;33708;49.466;11.176;2023-04-25T08:22:40;12.13;;;3.47;;
4698;SDS011;33708;49.466;11.176;2023-04-25T08:25:05;10.80;;;3.13;;
4698;SDS011;33708;49.466;11.176;2023-04-25T08:27:31;10.50;;;3.43;;
4698;SDS011;33708;49.466;11.176;2023-04-25T08:29:57;9.63;;;3.47;;
4698;SDS011;33708;49.466;11.176;2023-04-25T08:32:23;10.90;;;3.23;;
4698;SDS011;33708;49.466;11.176;2023-04-25T08:34:49;10.90;;;3.47;;
4698;SDS011;33708;49.466;11.176;2023-04-25T08:37:16;14.27;;;3.73;;
4698;SDS011;33708;49.466;11.176;2023-04-25T08:39:44;11.20;;;3.00;;
4698;SDS011;33708;49.466;11.176;2023-04-25T08:42:10;12.80;;;3.30;;
4698;SDS011;33708;49.466;11.176;2023-04-25T08:44:37;10.20;;;3.57;;
4698;SDS011;33708;49.466;11.176;2023-04-25T08:47:03;15.97;;;3.90;;
4698;SDS011;33708;49.466;11.176;2023-04-25T08:49:33;13.30;;;3.53;;
4698;SDS011;33708;49.466;11.176;2023-04-25T08:52:00;11.40;;;3.37;;
4698;SDS011;33708;49.466;11.176;2023-04-25T08:54:29;13.57;;;3.20;;
4698;SDS011;33708;49.466;11.176;2023-04-25T08:56:56;10.53;;;3.43;;
4698;SDS011;33708;49.466;11.176;2023-04-25T08:59:26;12.73;;;4.17;;
4698;SDS011;33708;49.466;11.176;2023-04-25T09:01:53;12.57;;;3.70;;
4698;SDS011;33708;49.466;11.176;2023-04-25T09:04:18;12.50;;;3.40;;
4698;SDS011;33708;49.466;11.176;2023-04-25T09:06:45;11.87;;;3.83;;
4698;SDS011;33708;49.466;11.176;2023-04-25T09:09:11;11.50;;;4.13;;
4698;SDS011;33708;49.466;11.176;2023-04-25T09:11:37;14.37;;;4.47;;
4698;SDS011;33708;49.466;11.176;2023-04-25T09:14:13;11.33;;;4.40;;
4698;SDS011;33708;49.466;11.176;2023-04-25T09:19:21;11.50;;;4.03;;
4698;SDS011;33708;49.466;11.176;2023-04-25T09:21:58;14.00;;;5.17;;
4698;SDS011;33708;49.466;11.176;2023-04-25T09:24:42;13.10;;;5.57;;
4698;SDS011;33708;49.466;11.176;2023-04-25T09:27:11;12.40;;;4.63;;
4698;SDS011;33708;49.466;11.176;2023-04-25T09:29:38;11.23;;;4.50;;
4698;SDS011;33708;49.466;11.176;2023-04-25T09:34:45;12.00;;;4.43;;
4698;SDS011;33708;49.466;11.176;2023-04-25T09:37:19;11.47;;;4.80;;
4698;SDS011;33708;49.466;11.176;2023-04-25T09:39:49;15.67;;;4.67;;
4698;SDS011;33708;49.466;11.176;2023-04-25T09:42:16;9.00;;;2.93;;
4698;SDS011;33708;49.466;11.176;2023-04-25T09:44:42;9.97;;;2.83;;
4698;SDS011;33708;49.466;11.176;2023-04-25T09:47:13;11.77;;;3.50;;
4698;SDS011;33708;49.466;11.176;2023-04-25T09:49:43;10.07;;;3.63;;
4698;SDS011;33708;49.466;11.176;2023-04-25T09:52:11;12.07;;;3.20;;
4698;SDS011;33708;49.466;11.176;2023-04-25T09:54:39;9.73;;;3.20;;
4698;SDS011;33708;49.466;11.176;2023-04-25T09:57:12;11.87;;;3.63;;
4698;SDS011;33708;49.466;11.176;2023-04-25T09:59:42;11.63;;;4.27;;
4698;SDS011;33708;49.466;11.176;2023-04-25T10:02:09;9.90;;;3.97;;
4698;SDS011;33708;49.466;11.176;2023-04-25T10:04:36;11.50;;;4.33;;
4698;SDS011;33708;49.466;11.176;2023-04-25T10:07:03;12.73;;;4.17;;
4698;SDS011;33708;49.466;11.176;2023-04-25T10:09:31;9.47;;;3.70;;
4698;SDS011;33708;49.466;11.176;2023-04-25T10:12:00;10.80;;;3.63;;
4698;SDS011;33708;49.466;11.176;2023-04-25T10:14:28;11.30;;;3.50;;
4698;SDS011;33708;49.466;11.176;2023-04-25T10:16:56;14.97;;;4.57;;
4698;SDS011;33708;49.466;11.176;2023-04-25T10:19:23;10.70;;;3.77;;
4698;SDS011;33708;49.466;11.176;2023-04-25T10:24:30;11.13;;;2.90;;
4698;SDS011;33708;49.466;11.176;2023-04-25T10:26:56;11.10;;;3.27;;
4698;SDS011;33708;49.466;11.176;2023-04-25T10:29:24;10.90;;;3.00;;
4698;SDS011;33708;49.466;11.176;2023-04-25T10:31:50;8.97;;;2.70;;
4698;SDS011;33708;49.466;11.176;2023-04-25T10:34:17;12.00;;;2.90;;
4698;SDS011;33708;49.466;11.176;2023-04-25T10:36:48;10.93;;;2.33;;
4698;SDS011;33708;49.466;11.176;2023-04-25T10:39:21;12.50;;;2.63;;
4698;SDS011;33708;49.466;11.176;2023-04-25T10:41:51;10.17;;;2.37;;
4698;SDS011;33708;49.466;11.176;2023-04-25T10:44:21;8.67;;;2.20;;
4698;SDS011;33708;49.466;11.176;2023-04-25T10:46:47;8.77;;;2.23;;
4698;SDS011;33708;49.466;11.176;2023-04-25T10:52:19;10.47;;;2.43;;
4698;SDS011;33708;49.466;11.176;2023-04-25T10:54:51;11.83;;;2.27;;
4698;SDS011;33708;49.466;11.176;2023-04-25T11:02:58;14.10;;;2.07;;
4698;SDS011;33708;49.466;11.176;2023-04-25T11:05:34;8.90;;;2.10;;
4698;SDS011;33708;49.466;11.176;2023-04-25T11:08:01;10.10;;;2.50;;
4698;SDS011;33708;49.466;11.176;2023-04-25T11:10:29;10.70;;;1.90;;
4698;SDS011;33708;49.466;11.176;2023-04-25T11:13:00;8.70;;;1.97;;
4698;SDS011;33708;49.466;11.176;2023-04-25T11:15:26;12.87;;;2.50;;
4698;SDS011;33708;49.466;11.176;2023-04-25T11:17:52;13.93;;;2.50;;
4698;SDS011;33708;49.466;11.176;2023-04-25T11:20:18;8.77;;;2.00;;
4698;SDS011;33708;49.466;11.176;2023-04-25T11:22:45;13.07;;;2.30;;
4698;SDS011;33708;49.466;11.176;2023-04-25T11:25:12;11.57;;;2.53;;
4698;SDS011;33708;49.466;11.176;2023-04-25T11:27:49;9.93;;;2.13;;
4698;SDS011;33708;49.466;11.176;2023-04-25T11:30:16;9.47;;;2.63;;
4698;SDS011;33708;49.466;11.176;2023-04-25T11:32:42;11.13;;;1.90;;
4698;SDS011;33708;49.466;11.176;2023-04-25T11:35:08;9.20;;;1.90;;
4698;SDS011;33708;49.466;11.176;2023-04-25T11:37:34;9.40;;;1.93;;
4698;SDS011;33708;49.466;11.176;2023-04-25T11:40:01;14.43;;;2.50;;
4698;SDS011;33708;49.466;11.176;2023-04-25T11:42:28;12.53;;;2.33;;
4698;SDS011;33708;49.466;11.176;2023-04-25T11:44:53;12.57;;;2.37;;
4698;SDS011;33708;49.466;11.176;2023-04-25T11:47:19;12.10;;;2.30;;
4698;SDS011;33708;49.466;11.176;2023-04-25T11:49:45;9.63;;;1.97;;
4698;SDS011;33708;49.466;11.176;2023-04-25T11:52:10;10.47;;;2.20;;
4698;SDS011;33708;49.466;11.176;2023-04-25T11:54:37;9.83;;;2.30;;
4698;SDS011;33708;49.466;11.176;2023-04-25T11:57:03;8.97;;;2.17;;
4698;SDS011;33708;49.466;11.176;2023-04-25T11:59:29;11.23;;;2.40;;
4698;SDS011;33708;49.466;11.176;2023-04-25T12:01:55;9.67;;;2.00;;
4698;SDS011;33708;49.466;11.176;2023-04-25T12:04:22;9.40;;;2.10;;
4698;SDS011;33708;49.466;11.176;2023-04-25T12:06:50;10.17;;;1.90;;
4698;SDS011;33708;49.466;11.176;2023-04-25T12:09:21;9.70;;;2.30;;
4698;SDS011;33708;49.466;11.176;2023-04-25T12:11:57;12.40;;;2.40;;
4698;SDS011;33708;49.466;11.176;2023-04-25T12:16:51;8.37;;;2.07;;
4698;SDS011;33708;49.466;11.176;2023-04-25T12:19:18;7.87;;;1.57;;
4698;SDS011;33708;49.466;11.176;2023-04-25T12:21:45;8.50;;;1.70;;
4698;SDS011;33708;49.466;11.176;2023-04-25T12:26:50;9.87;;;1.63;;
4698;SDS011;33708;49.466;11.176;2023-04-25T12:29:27;7.67;;;1.57;;
4698;SDS011;33708;49.466;11.176;2023-04-25T12:31:55;7.80;;;1.60;;
4698;SDS011;33708;49.466;11.176;2023-04-25T12:34:21;7.60;;;1.33;;
4698;SDS011;33708;49.466;11.176;2023-04-25T12:36:49;8.80;;;1.90;;
4698;SDS011;33708;49.466;11.176;2023-04-25T12:39:21;8.30;;;1.63;;
4698;SDS011;33708;49.466;11.176;2023-04-25T12:41:51;7.67;;;1.50;;
4698;SDS011;33708;49.466;11.176;2023-04-25T12:44:18;7.73;;;1.57;;
4698;SDS011;33708;49.466;11.176;2023-04-25T12:46:44;9.40;;;1.63;;
4698;SDS011;33708;49.466;11.176;2023-04-25T12:49:10;7.60;;;1.37;;
4698;SDS011;33708;49.466;11.176;2023-04-25T12:51:36;9.50;;;1.40;;
4698;SDS011;33708;49.466;11.176;2023-04-25T12:54:03;8.63;;;1.70;;
4698;SDS011;33708;49.466;11.176;2023-04-25T12:56:29;7.53;;;1.63;;
4698;SDS011;33708;49.466;11.176;2023-04-25T12:58:56;8.50;;;1.73;;
4698;SDS011;33708;49.466;11.176;2023-04-25T13:01:22;8.37;;;1.90;;
4698;SDS011;33708;49.466;11.176;2023-04-25T13:03:48;8.07;;;1.53;;
4698;SDS011;33708;49.466;11.176;2023-04-25T13:06:14;8.50;;;1.93;;
4698;SDS011;33708;49.466;11.176;2023-04-25T13:08:40;9.20;;;1.60;;
4698;SDS011;33708;49.466;11.176;2023-04-25T13:11:07;8.90;;;1.30;;
4698;SDS011;33708;49.466;11.176;2023-04-25T13:13:32;9.37;;;1.80;;
4698;SDS011;33708;49.466;11.176;2023-04-25T13:16:00;8.80;;;1.97;;
4698;SDS011;33708;49.466;11.176;2023-04-25T13:18:26;9.37;;;2.30;;
4698;SDS011;33708;49.466;11.176;2023-04-25T13:20:53;7.27;;;1.60;;
4698;SDS011;33708;49.466;11.176;2023-04-25T13:23:19;8.17;;;1.90;;
4698;SDS011;33708;49.466;11.176;2023-04-25T13:25:45;7.53;;;1.67;;
4698;SDS011;33708;49.466;11.176;2023-04-25T13:28:12;11.37;;;1.93;;
4698;SDS011;33708;49.466;11.176;2023-04-25T13:30:38;7.90;;;1.70;;
4698;SDS011;33708;49.466;11.176;2023-04-25T13:33:04;9.03;;;2.10;;
4698;SDS011;33708;49.466;11.176;2023-04-25T13:35:31;8.30;;;1.70;;
4698;SDS011;33708;49.466;11.176;2023-04-25T13:37:58;8.10;;;1.70;;
4698;SDS011;33708;49.466;11.176;2023-04-25T13:40:24;8.70;;;1.97;;
4698;SDS011;33708;49.466;11.176;2023-04-25T13:42:49;8.27;;;1.70;;
4698;SDS011;33708;49.466;11.176;2023-04-25T13:45:16;8.80;;;1.40;;
4698;SDS011;33708;49.466;11.176;2023-04-25T13:47:41;8.80;;;2.00;;
4698;SDS011;33708;49.466;11.176;2023-04-25T13:50:07;10.33;;;2.13;;
4698;SDS011;33708;49.466;11.176;2023-04-25T13:52:33;9.13;;;1.87;;
4698;SDS011;33708;49.466;11.176;2023-04-25T13:54:59;8.60;;;1.87;;
4698;SDS011;33708;49.466;11.176;2023-04-25T13:57:26;8.63;;;2.07;;
4698;SDS011;33708;49.466;11.176;2023-04-25T13:59:51;8.73;;;2.13;;
4698;SDS011;33708;49.466;11.176;2023-04-25T14:02:19;10.10;;;2.27;;
4698;SDS011;33708;49.466;11.176;2023-04-25T14:04:44;9.73;;;1.90;;
4698;SDS011;33708;49.466;11.176;2023-04-25T14:07:10;9.30;;;2.60;;
4698;SDS011;33708;49.466;11.176;2023-04-25T14:09:36;8.23;;;2.00;;
4698;SDS011;33708;49.466;11.176;2023-04-25T14:12:02;9.20;;;2.13;;
4698;SDS011;33708;49.466;11.176;2023-04-25T14:14:27;9.43;;;1.93;;
4698;SDS011;33708;49.466;11.176;2023-04-25T14:16:53;11.47;;;2.20;;
4698;SDS011;33708;49.466;11.176;2023-04-25T14:19:19;10.40;;;2.77;;
4698;SDS011;33708;49.466;11.176;2023-04-25T14:21:46;7.87;;;1.57;;
4698;SDS011;33708;49.466;11.176;2023-04-25T14:24:12;9.00;;;2.10;;
4698;SDS011;33708;49.466;11.176;2023-04-25T14:26:38;10.43;;;2.33;;
4698;SDS011;33708;49.466;11.176;2023-04-25T14:29:04;8.70;;;1.90;;
4698;SDS011;33708;49.466;11.176;2023-04-25T14:31:32;11.17;;;2.07;;
4698;SDS011;33708;49.466;11.176;2023-04-25T14:33:58;12.67;;;2.47;;
4698;SDS011;33708;49.466;11.176;2023-04-25T14:36:23;12.70;;;2.60;;
4698;SDS011;33708;49.466;11.176;2023-04-25T14:38:49;9.37;;;2.43;;
4698;SDS011;33708;49.466;11.176;2023-04-25T14:41:15;9.30;;;2.70;;
4698;SDS011;33708;49.466;11.176;2023-04-25T14:43:40;13.50;;;2.63;;
4698;SDS011;33708;49.466;11.176;2023-04-25T14:46:06;8.50;;;2.30;;
4698;SDS011;33708;49.466;11.176;2023-04-25T14:48:32;10.90;;;3.00;;
4698;SDS011;33708;49.466;11.176;2023-04-25T14:50:58;10.67;;;2.73;;
4698;SDS011;33708;49.466;11.176;2023-04-25T14:53:27;9.30;;;2.57;;
4698;SDS011;33708;49.466;11.176;2023-04-25T14:55:53;10.07;;;2.60;;